Firth, NE

1:23 PM CDT on May 05, 2015 (GMT -0500)
Plattsmouth Municipal | | Change Station
CLOSE
Current Station
Airport
Location: Plattsmouth,
Elevation: 1201 ft
Nearby Weather Stations

Elev 1201 ft 40.95 °N, 95.92 °W | Updated 8 minutes ago

Partly Cloudy
Partly Cloudy
71 °F
Feels Like 71 °F
N
10
Wind Variable Wind from SSE

Today
High -- | Low -- °F
--% Chance of Precip.
Yesterday
High -- | Low -- °F
Precip. -- in
6:20 AM 8:26 PM
Full, 97% visible
Pressure 30.07 in
Visibility 10.0 miles
Clouds Scattered Clouds 1700 ft
Scattered Clouds 7000 ft
Mostly Cloudy 10000 ft
Dew Point 62 °F
Humidity 73%
Rainfall 0.00 in
Snow Depth Not available.
UV 6 out of 12
Pollen 4.50 out of 12
Air Quality Not available.
Flu Activity Local Activity
METAR KPMV 051815Z AUTO 15009KT 10SM SCT017 SCT070 BKN100 22/17 A3007 RMK AO2 T02160165

More Conditions Fewer Conditions

Pressure 30.07 in
Visibility 10.0 miles
Clouds Scattered Clouds 1700 ft
Scattered Clouds 7000 ft
Mostly Cloudy 10000 ft
Dew Point 62 °F
Humidity 73%
Rainfall 0.00 in
Snow Depth Not available.
UV 6 out of 12
Pollen 4.50 out of 12
Air Quality Not available.
Flu Activity Local Activity
METAR KPMV 051815Z AUTO 15009KT 10SM SCT017 SCT070 BKN100 22/17 A3007 RMK AO2 T02160165

More Conditions Fewer Conditions

10-Day Weather Forecast

Almanac

Astronomy

May. 05, 2015 Rise Set
Actual Time
Civil Twilight
Nautical Twilight
Astronomical Twilight
Moon
Length of Visible Light
Length of Day
Tomorrow will be .
, % of the Moon is Illuminated

Today's Extremes

State Highs State Lows

Community

WunderPhotos

Upload Photos

1,818,951 photos uploaded!

WunderBlogs® & News

Nearby

Air Quality

  Air Quality AQ Index Pollutant
Not available.

Snow Depth

Station Depth Elevation

Earthquake Activity

City Distance Mag. Time & Date
Minimum magnitude displayed is 2.5.

Coastal Water Temperatures

Place Temperature

Stations

Nearby Weather Stations

Station Location Temp. Windchill Dew Point Humidity Wind Precip. Elev Updated Type